Time;durP1;ratioP1;P1;durP2;ratioP2;P2;SDS_P1;SDS_P2;PMS_P1;PMS_P2;Temp;Humidity;BMP_temperature;BMP_pressure;BME280_temperature;BME280_humidity;BME280_pressure;Samples;Min_cycle;Max_cycle;Signal;HPM_P1;HPM_P2
2021/12/15 00:01:22;;;;;;;24.92;8.93;;;8.40;99.90;;;;;;5032178;28;20029;-50
2021/12/15 00:03:48;;;;;;;25.58;8.98;;;8.40;99.90;;;;;;5041346;28;20044;-50
2021/12/15 00:06:18;;;;;;;25.05;8.00;;;8.40;99.90;;;;;;5043573;28;20393;-50
2021/12/15 00:08:46;;;;;;;23.20;8.77;;;8.40;99.90;;;;;;5041877;28;20037;-50
2021/12/15 00:11:12;;;;;;;25.48;8.40;;;8.40;99.90;;;;;;5042779;28;20259;-49
2021/12/15 00:13:40;;;;;;;27.38;8.30;;;8.40;99.90;;;;;;5042881;28;20065;-50
2021/12/15 00:16:08;;;;;;;23.80;9.02;;;8.40;99.90;;;;;;5029732;28;20064;-50
2021/12/15 00:18:35;;;;;;;23.73;7.20;;;8.40;99.90;;;;;;5043160;28;20036;-50
2021/12/15 00:21:02;;;;;;;24.17;9.95;;;8.40;99.90;;;;;;5041543;28;20014;-50
2021/12/15 00:23:27;;;;;;;26.65;8.77;;;8.40;99.90;;;;;;5043539;28;20033;-50
2021/12/15 00:25:53;;;;;;;28.58;8.30;;;8.40;99.90;;;;;;5041545;28;20039;-50
2021/12/15 00:28:19;;;;;;;26.00;8.43;;;8.40;99.90;;;;;;5041987;28;20122;-50
2021/12/15 00:30:45;;;;;;;23.33;9.95;;;8.40;99.90;;;;;;5035760;28;20025;-50
2021/12/15 00:33:11;;;;;;;24.98;8.73;;;8.30;99.90;;;;;;5043474;28;20112;-50
2021/12/15 00:35:37;;;;;;;27.50;9.50;;;8.40;99.90;;;;;;5039772;28;20025;-50
2021/12/15 00:38:05;;;;;;;24.02;10.20;;;8.40;99.90;;;;;;5035551;28;20030;-50
2021/12/15 00:40:31;;;;;;;29.02;8.65;;;8.40;99.90;;;;;;5043043;28;20036;-50
2021/12/15 00:42:57;;;;;;;29.45;11.00;;;8.30;99.90;;;;;;5041230;28;20021;-50
2021/12/15 00:45:23;;;;;;;35.42;10.50;;;8.40;99.90;;;;;;5032523;28;20029;-50
2021/12/15 00:47:49;;;;;;;32.05;10.15;;;8.30;99.90;;;;;;5038258;28;20384;-51
2021/12/15 00:50:17;;;;;;;36.08;9.35;;;8.40;99.90;;;;;;5035991;28;20324;-51
2021/12/15 00:52:44;;;;;;;30.27;9.57;;;8.40;99.90;;;;;;5043841;28;20033;-50
2021/12/15 00:55:14;;;;;;;27.05;9.85;;;8.40;99.90;;;;;;5039604;28;20029;-50
2021/12/15 00:57:39;;;;;;;28.73;8.13;;;8.30;99.90;;;;;;5042265;28;20032;-50
2021/12/15 01:00:30;;;;;;;34.58;9.13;;;8.40;99.90;;;;;;5039421;28;20527;-50
2021/12/15 01:02:56;;;;;;;31.85;8.95;;;8.40;99.90;;;;;;5039049;28;20077;-50
2021/12/15 01:05:25;;;;;;;25.02;7.85;;;8.40;99.90;;;;;;5040560;28;20112;-50
2021/12/15 01:07:52;;;;;;;24.08;7.78;;;8.40;99.90;;;;;;5042774;28;20060;-50
2021/12/15 01:10:25;;;;;;;25.42;8.18;;;8.40;99.90;;;;;;5039860;28;20358;-50
2021/12/15 01:14:31;;;;;;;30.80;8.80;;;8.40;99.90;;;;;;5042144;28;20040;-50
2021/12/15 01:21:12;;;;;;;24.85;7.57;;;8.40;99.90;;;;;;5039489;28;20040;-50
2021/12/15 01:23:39;;;;;;;19.17;8.15;;;8.40;99.90;;;;;;5042464;28;20017;-50
2021/12/15 01:26:11;;;;;;;30.10;8.55;;;8.40;99.90;;;;;;5039946;28;20087;-50
2021/12/15 01:28:37;;;;;;;23.33;7.68;;;8.40;99.90;;;;;;5040239;28;20028;-50
2021/12/15 01:31:04;;;;;;;31.95;8.23;;;8.40;99.90;;;;;;5032170;28;20034;-50
2021/12/15 01:33:30;;;;;;;25.13;9.15;;;8.40;99.90;;;;;;5042777;28;20066;-50
2021/12/15 01:35:58;;;;;;;23.92;9.13;;;8.40;99.90;;;;;;5034376;28;20068;-50
2021/12/15 01:38:27;;;;;;;22.77;8.55;;;8.30;99.90;;;;;;5040154;28;20017;-50
2021/12/15 01:40:53;;;;;;;21.42;7.63;;;8.40;99.90;;;;;;5041211;28;20032;-51
2021/12/15 01:43:32;;;;;;;25.38;8.82;;;8.40;99.90;;;;;;5041358;28;20029;-50
2021/12/15 01:49:11;;;;;;;17.88;8.05;;;8.40;99.90;;;;;;5042498;28;20098;-51
2021/12/15 01:51:37;;;;;;;26.48;9.00;;;8.40;99.90;;;;;;5033345;28;20327;-50
2021/12/15 01:54:04;;;;;;;26.98;8.90;;;8.40;99.90;;;;;;5040102;28;20059;-50
2021/12/15 01:56:31;;;;;;;27.63;8.55;;;8.40;99.90;;;;;;5040779;28;20071;-50
2021/12/15 01:58:57;;;;;;;22.77;8.07;;;8.40;99.90;;;;;;5040354;28;20025;-50
2021/12/15 02:01:23;;;;;;;28.50;9.80;;;8.40;99.90;;;;;;5033638;28;20037;-50
2021/12/15 02:03:49;;;;;;;24.95;9.10;;;8.40;99.90;;;;;;5038803;28;20090;-50
2021/12/15 02:06:14;;;;;;;21.10;9.07;;;8.30;99.90;;;;;;5038258;28;20044;-50
2021/12/15 02:08:41;;;;;;;22.33;8.02;;;8.40;99.90;;;;;;5034792;28;20021;-50
2021/12/15 02:11:07;;;;;;;22.90;8.18;;;8.40;99.90;;;;;;5041820;28;20033;-50
2021/12/15 02:13:33;;;;;;;20.90;7.88;;;8.40;99.90;;;;;;5040057;28;20037;-50
2021/12/15 02:16:01;;;;;;;22.25;8.48;;;8.40;99.90;;;;;;5038367;28;20070;-50
2021/12/15 02:18:31;;;;;;;18.73;7.85;;;8.40;99.90;;;;;;5035621;28;20029;-50
2021/12/15 02:20:58;;;;;;;18.92;8.10;;;8.40;99.90;;;;;;5039133;28;20105;-50
2021/12/15 02:23:32;;;;;;;26.77;9.07;;;8.40;99.90;;;;;;5034956;28;20336;-50
2021/12/15 02:26:00;;;;;;;32.58;8.48;;;8.40;99.90;;;;;;5040270;28;20025;-50
2021/12/15 02:28:26;;;;;;;22.88;8.30;;;8.40;99.90;;;;;;5041255;28;20123;-50
2021/12/15 02:31:09;;;;;;;24.90;9.40;;;8.40;99.90;;;;;;5039408;28;20101;-50
2021/12/15 02:33:57;;;;;;;33.40;9.15;;;8.30;99.90;;;;;;5036184;28;20068;-50
2021/12/15 02:39:07;;;;;;;23.35;8.88;;;8.40;99.90;;;;;;5035873;28;20430;-50
2021/12/15 02:41:33;;;;;;;27.52;11.00;;;8.40;99.90;;;;;;5041435;28;20115;-50
2021/12/15 02:44:04;;;;;;;18.02;7.53;;;8.40;99.90;;;;;;5040705;28;20025;-50
2021/12/15 02:46:32;;;;;;;20.52;8.70;;;8.40;99.90;;;;;;5028594;28;20473;-50
2021/12/15 02:48:58;;;;;;;23.75;8.35;;;8.30;99.90;;;;;;5037666;28;20410;-50
2021/12/15 02:51:24;;;;;;;23.20;8.85;;;8.40;99.90;;;;;;5041854;28;20017;-50
2021/12/15 02:53:51;;;;;;;21.55;7.72;;;8.40;99.90;;;;;;5038764;28;20068;-50
2021/12/15 02:56:17;;;;;;;23.25;8.48;;;8.40;99.90;;;;;;5039983;28;20403;-50
2021/12/15 02:58:56;;;;;;;22.00;8.63;;;8.40;99.90;;;;;;5040714;28;20435;-50
2021/12/15 03:01:34;;;;;;;19.52;7.80;;;8.40;99.90;;;;;;5036381;28;20083;-50
2021/12/15 03:06:39;;;;;;;22.27;8.70;;;8.40;99.90;;;;;;5044103;28;20095;-50
2021/12/15 03:17:05;;;;;;;19.67;8.30;;;8.40;99.90;;;;;;5027007;28;20043;-50
2021/12/15 03:19:31;;;;;;;22.88;8.43;;;8.40;99.90;;;;;;5044413;28;20108;-50
2021/12/15 03:21:56;;;;;;;20.67;7.97;;;8.30;99.90;;;;;;5043634;28;20412;-50
2021/12/15 03:24:24;;;;;;;21.33;8.48;;;8.40;99.90;;;;;;5043266;28;20029;-50
2021/12/15 03:27:08;;;;;;;23.00;9.10;;;8.40;99.90;;;;;;5044450;28;20021;-50
2021/12/15 03:37:46;;;;;;;17.67;7.97;;;8.40;99.90;;;;;;5043268;28;20086;-49
2021/12/15 03:40:18;;;;;;;23.50;7.80;;;8.40;99.90;;;;;;5038545;28;20121;-50
2021/12/15 03:42:46;;;;;;;24.45;7.60;;;8.40;99.90;;;;;;5039235;28;20344;-50
2021/12/15 03:45:17;;;;;;;22.98;8.75;;;8.40;99.90;;;;;;5042898;28;20350;-50
2021/12/15 03:47:46;;;;;;;28.30;8.32;;;8.40;99.90;;;;;;5038808;28;20029;-50
2021/12/15 03:50:16;;;;;;;24.40;8.35;;;8.40;99.90;;;;;;5039085;28;20352;-50
2021/12/15 03:52:42;;;;;;;24.63;8.65;;;8.40;99.90;;;;;;5039634;28;20048;-50
2021/12/15 03:55:10;;;;;;;24.13;10.00;;;8.40;99.90;;;;;;5041873;28;20030;-50
2021/12/15 03:57:35;;;;;;;19.83;8.43;;;8.40;99.90;;;;;;5042661;28;20025;-50
2021/12/15 04:00:09;;;;;;;27.00;8.75;;;8.40;99.90;;;;;;5044013;28;20024;-50
2021/12/15 04:02:34;;;;;;;22.58;8.90;;;8.40;99.90;;;;;;5029107;28;20438;-50
2021/12/15 04:05:00;;;;;;;18.52;7.50;;;8.40;99.90;;;;;;5042987;28;20029;-50
2021/12/15 04:07:26;;;;;;;21.75;7.15;;;8.40;99.90;;;;;;5041899;28;20026;-50
2021/12/15 04:09:53;;;;;;;26.92;9.15;;;8.30;99.90;;;;;;5043195;28;20116;-49
2021/12/15 04:12:20;;;;;;;22.23;7.40;;;8.30;99.90;;;;;;5037942;28;20038;-50
2021/12/15 04:14:54;;;;;;;23.40;8.48;;;8.40;99.90;;;;;;5044135;28;20036;-50
2021/12/15 04:17:29;;;;;;;25.40;8.88;;;8.40;99.90;;;;;;5033388;28;20061;-50
2021/12/15 04:19:59;;;;;;;21.48;6.95;;;8.40;99.90;;;;;;5041849;28;20625;-50
2021/12/15 04:22:25;;;;;;;14.23;6.90;;;8.30;99.90;;;;;;5039974;28;20057;-50
2021/12/15 04:24:52;;;;;;;22.63;6.50;;;8.40;99.90;;;;;;5044548;28;20028;-50
2021/12/15 04:27:20;;;;;;;26.60;8.00;;;8.40;99.90;;;;;;5040527;28;20080;-50
2021/12/15 04:29:47;;;;;;;24.77;8.55;;;8.40;99.90;;;;;;5042686;28;20358;-51
2021/12/15 04:32:22;;;;;;;26.83;7.97;;;8.40;99.90;;;;;;5031781;28;20147;-50
2021/12/15 04:34:48;;;;;;;23.33;7.45;;;8.40;99.90;;;;;;5040505;28;20029;-50
2021/12/15 04:37:14;;;;;;;26.48;9.27;;;8.30;99.90;;;;;;5042963;28;20021;-50
2021/12/15 04:39:39;;;;;;;23.50;8.38;;;8.40;99.90;;;;;;5041226;28;20029;-49
2021/12/15 04:42:06;;;;;;;17.83;7.70;;;8.40;99.90;;;;;;5031811;28;20030;-50
2021/12/15 04:44:34;;;;;;;28.25;8.38;;;8.40;99.90;;;;;;5042098;28;20104;-50
2021/12/15 04:47:08;;;;;;;19.13;7.13;;;8.40;99.90;;;;;;5041071;28;20171;-50
2021/12/15 04:49:48;;;;;;;21.27;8.27;;;8.40;99.90;;;;;;5035806;28;20029;-50
2021/12/15 04:52:15;;;;;;;27.92;9.45;;;8.30;99.90;;;;;;5038344;28;20366;-50
2021/12/15 04:54:42;;;;;;;19.23;7.57;;;8.40;99.90;;;;;;5043000;28;20031;-49
2021/12/15 04:57:09;;;;;;;18.98;6.93;;;8.40;99.90;;;;;;5035280;28;20037;-50
2021/12/15 04:59:35;;;;;;;21.20;7.93;;;8.30;99.90;;;;;;5043373;28;20337;-50
2021/12/15 05:02:02;;;;;;;17.65;7.88;;;8.40;99.90;;;;;;5040795;28;20334;-50
2021/12/15 05:04:29;;;;;;;23.77;7.97;;;8.40;99.90;;;;;;5027947;28;20025;-50
2021/12/15 05:06:54;;;;;;;17.17;8.30;;;8.40;99.90;;;;;;5041222;28;20047;-50
2021/12/15 05:09:21;;;;;;;17.83;7.47;;;8.40;99.90;;;;;;5040314;28;20029;-50
2021/12/15 05:11:49;;;;;;;14.63;6.20;;;8.40;99.90;;;;;;5043084;28;20025;-50
2021/12/15 05:14:15;;;;;;;21.10;7.30;;;8.40;99.90;;;;;;5034478;28;20477;-50
2021/12/15 05:16:40;;;;;;;21.00;7.43;;;8.40;99.90;;;;;;5039986;28;20104;-49
2021/12/15 05:19:07;;;;;;;18.38;7.20;;;8.40;99.90;;;;;;5037746;28;20327;-49
2021/12/15 05:21:33;;;;;;;14.43;6.10;;;8.40;99.90;;;;;;5041671;28;20492;-50
2021/12/15 05:24:08;;;;;;;15.77;6.72;;;8.40;99.90;;;;;;5036831;28;20431;-50
2021/12/15 05:26:34;;;;;;;15.88;6.07;;;8.40;99.90;;;;;;5035119;28;20037;-49
2021/12/15 05:29:00;;;;;;;16.15;6.47;;;8.40;99.90;;;;;;5039397;28;20108;-50
2021/12/15 05:31:25;;;;;;;12.35;6.47;;;8.40;99.90;;;;;;5041122;28;20029;-49
2021/12/15 05:33:51;;;;;;;21.35;6.18;;;8.40;99.90;;;;;;5037093;28;20064;-49
2021/12/15 05:36:17;;;;;;;10.85;5.45;;;8.40;99.90;;;;;;5035985;28;20037;-50
2021/12/15 05:38:42;;;;;;;14.40;6.20;;;8.40;99.90;;;;;;5040072;28;20026;-49
2021/12/15 05:41:08;;;;;;;18.85;7.93;;;8.40;99.90;;;;;;5042722;28;20492;-50
2021/12/15 05:43:34;;;;;;;17.95;6.97;;;8.40;99.90;;;;;;5039222;28;20232;-49
2021/12/15 05:45:59;;;;;;;21.48;7.70;;;8.40;99.90;;;;;;5037222;28;20021;-50
2021/12/15 05:48:25;;;;;;;13.75;6.63;;;8.40;99.90;;;;;;5034292;28;20573;-49
2021/12/15 05:50:51;;;;;;;15.95;6.38;;;8.30;99.90;;;;;;5039133;28;20028;-50
2021/12/15 05:53:17;;;;;;;19.90;6.90;;;8.40;99.90;;;;;;5039988;28;20587;-50
2021/12/15 05:55:44;;;;;;;15.68;6.63;;;8.40;99.90;;;;;;5037738;28;20455;-49
2021/12/15 05:58:10;;;;;;;20.20;7.03;;;8.40;99.90;;;;;;5034101;28;20034;-50
2021/12/15 06:00:40;;;;;;;17.73;7.03;;;8.40;99.90;;;;;;5038235;28;20025;-50
2021/12/15 06:03:06;;;;;;;18.95;7.60;;;8.40;99.90;;;;;;5025438;28;20037;-50
2021/12/15 06:05:34;;;;;;;20.02;7.00;;;8.40;99.90;;;;;;5039005;28;20070;-50
2021/12/15 06:07:59;;;;;;;13.30;5.22;;;8.40;99.90;;;;;;5033765;28;20033;-49
2021/12/15 06:10:28;;;;;;;17.88;6.80;;;8.40;99.90;;;;;;5034675;28;20078;-49
2021/12/15 06:12:55;;;;;;;16.48;6.47;;;8.40;99.90;;;;;;5036577;28;20044;-50
2021/12/15 06:15:24;;;;;;;18.52;7.68;;;8.40;99.90;;;;;;5038319;28;20030;-50
2021/12/15 06:17:52;;;;;;;15.35;6.03;;;8.40;99.90;;;;;;5034162;28;20037;-50
2021/12/15 06:20:18;;;;;;;14.40;6.60;;;8.40;99.90;;;;;;5034956;28;20024;-49
2021/12/15 06:22:45;;;;;;;13.50;6.55;;;8.40;99.90;;;;;;5040843;28;20030;-50
2021/12/15 06:25:12;;;;;;;20.65;8.52;;;8.40;99.90;;;;;;5039575;28;20028;-50
2021/12/15 06:27:40;;;;;;;30.05;9.77;;;8.40;99.90;;;;;;5036694;28;20033;-50
2021/12/15 06:30:07;;;;;;;24.50;9.23;;;8.40;99.90;;;;;;5027118;28;20236;-50
2021/12/15 06:32:33;;;;;;;27.08;9.52;;;8.40;99.90;;;;;;5028314;28;20076;-50
2021/12/15 06:34:59;;;;;;;23.98;9.55;;;8.40;99.90;;;;;;5029529;28;20051;-49
2021/12/15 06:37:25;;;;;;;21.05;9.57;;;8.40;99.90;;;;;;5040643;28;20447;-50
2021/12/15 06:39:50;;;;;;;28.48;9.23;;;8.40;99.90;;;;;;5026597;28;20033;-50
2021/12/15 06:42:16;;;;;;;23.70;9.98;;;8.40;99.90;;;;;;5035392;28;20116;-50
2021/12/15 06:44:41;;;;;;;34.75;10.27;;;8.40;99.90;;;;;;5043055;28;20017;-50
2021/12/15 07:00:29;;;;;;;24.30;10.35;;;8.40;99.90;;;;;;5033591;28;20064;-49
2021/12/15 07:02:56;;;;;;;22.63;8.82;;;8.40;99.90;;;;;;5031472;28;20044;-49
2021/12/15 07:05:23;;;;;;;24.85;9.30;;;8.40;99.90;;;;;;5026308;28;20036;-50
2021/12/15 07:07:50;;;;;;;22.35;9.63;;;8.40;99.90;;;;;;5031438;28;20060;-49
2021/12/15 07:10:21;;;;;;;16.70;7.60;;;8.40;99.90;;;;;;5027524;28;20080;-49
2021/12/15 07:12:49;;;;;;;68.22;29.88;;;8.40;99.90;;;;;;5028836;28;20041;-49
2021/12/15 07:15:15;;;;;;;19.25;7.53;;;8.40;99.90;;;;;;5029693;28;20448;-49
2021/12/15 07:17:43;;;;;;;17.65;7.43;;;8.40;99.90;;;;;;5029900;28;20137;-49
2021/12/15 07:22:56;;;;;;;13.73;6.95;;;8.40;99.90;;;;;;5027516;28;20394;-49
2021/12/15 07:25:22;;;;;;;16.75;7.65;;;8.40;99.90;;;;;;5027315;28;20105;-49
2021/12/15 07:27:48;;;;;;;15.48;7.63;;;8.40;99.90;;;;;;5031296;28;20061;-49
2021/12/15 07:30:15;;;;;;;17.65;7.65;;;8.40;99.90;;;;;;5027672;28;20024;-49
2021/12/15 07:32:41;;;;;;;22.80;8.57;;;8.40;99.90;;;;;;5026518;28;20447;-49
2021/12/15 07:35:08;;;;;;;20.52;8.05;;;8.40;99.90;;;;;;5025630;28;20018;-49
2021/12/15 07:37:33;;;;;;;20.08;8.00;;;8.40;99.90;;;;;;5030251;28;20029;-49
2021/12/15 07:40:00;;;;;;;29.23;8.48;;;8.40;99.90;;;;;;5029883;28;20092;-49
2021/12/15 07:42:34;;;;;;;21.48;7.32;;;8.40;99.90;;;;;;5031008;28;20052;-49
2021/12/15 07:45:00;;;;;;;23.45;8.90;;;8.40;99.90;;;;;;5028113;28;20079;-49
2021/12/15 07:47:26;;;;;;;27.88;8.80;;;8.40;99.90;;;;;;5024548;28;20029;-49
2021/12/15 07:49:51;;;;;;;30.40;10.88;;;8.40;99.90;;;;;;5025619;28;20170;-49
2021/12/15 07:52:17;;;;;;;32.03;10.18;;;8.30;99.90;;;;;;5030909;28;20075;-49
2021/12/15 07:54:43;;;;;;;23.30;9.70;;;8.40;99.90;;;;;;5030192;28;20137;-49
2021/12/15 07:57:12;;;;;;;30.58;12.35;;;8.40;99.90;;;;;;5030115;28;20423;-49
2021/12/15 07:59:37;;;;;;;23.17;9.75;;;8.40;99.90;;;;;;5030145;28;20057;-49
2021/12/15 08:02:04;;;;;;;30.85;10.43;;;8.40;99.90;;;;;;5030086;28;20427;-49
2021/12/15 08:04:29;;;;;;;32.58;11.82;;;8.40;99.90;;;;;;5029706;28;20077;-49
2021/12/15 08:06:55;;;;;;;33.60;10.60;;;8.30;99.90;;;;;;5026930;28;20466;-49
2021/12/15 08:09:22;;;;;;;23.30;9.75;;;8.40;99.90;;;;;;5027676;28;20044;-49
2021/12/15 08:11:48;;;;;;;34.28;11.85;;;8.40;99.90;;;;;;5029267;28;20017;-49
2021/12/15 08:14:15;;;;;;;23.92;9.75;;;8.40;99.90;;;;;;5030174;28;20354;-49
2021/12/15 08:16:41;;;;;;;30.58;10.85;;;8.40;99.90;;;;;;5028995;28;20474;-49
2021/12/15 08:19:08;;;;;;;29.83;10.98;;;8.40;99.90;;;;;;5029278;28;20032;-49
2021/12/15 08:21:34;;;;;;;29.65;10.80;;;8.40;99.90;;;;;;5031840;28;20363;-49
2021/12/15 08:24:00;;;;;;;29.80;11.07;;;8.40;99.90;;;;;;5030570;28;20040;-49
2021/12/15 08:26:26;;;;;;;28.05;10.48;;;8.40;99.90;;;;;;5029195;28;20470;-49
2021/12/15 08:28:52;;;;;;;25.70;8.35;;;8.30;99.90;;;;;;5040052;28;20036;-49
2021/12/15 08:31:18;;;;;;;22.38;8.20;;;8.40;99.90;;;;;;5039101;28;20385;-49
2021/12/15 08:33:44;;;;;;;29.60;10.13;;;8.40;99.90;;;;;;5030453;28;20486;-49
2021/12/15 08:36:13;;;;;;;25.85;9.43;;;8.40;99.90;;;;;;5034744;28;20037;-49
2021/12/15 08:38:43;;;;;;;27.83;9.48;;;8.30;99.90;;;;;;5033517;28;20021;-49
2021/12/15 08:41:13;;;;;;;31.95;8.75;;;8.40;99.90;;;;;;5035788;28;20083;-49
2021/12/15 08:43:39;;;;;;;16.13;6.70;;;8.40;99.90;;;;;;5032893;28;20542;-50
2021/12/15 08:46:17;;;;;;;19.90;7.60;;;8.40;99.90;;;;;;5026799;28;20030;-49
2021/12/15 08:48:44;;;;;;;18.38;8.40;;;8.40;99.90;;;;;;5023313;28;20029;-49
2021/12/15 08:51:13;;;;;;;21.23;8.90;;;8.40;99.90;;;;;;5023980;28;20029;-49
2021/12/15 08:53:41;;;;;;;17.17;6.53;;;8.40;99.90;;;;;;5022464;28;20073;-49
2021/12/15 08:56:07;;;;;;;19.38;6.50;;;8.40;99.90;;;;;;5021524;28;20052;-50
2021/12/15 08:58:34;;;;;;;21.40;7.10;;;8.40;99.90;;;;;;5020531;28;20456;-49
2021/12/15 09:01:00;;;;;;;16.83;6.85;;;8.40;99.90;;;;;;5022841;28;20025;-49
2021/12/15 09:03:27;;;;;;;14.57;6.03;;;8.40;99.90;;;;;;5022002;28;20040;-49
2021/12/15 09:05:56;;;;;;;17.00;7.07;;;8.40;99.90;;;;;;5019100;28;20371;-50
2021/12/15 09:08:24;;;;;;;19.85;6.47;;;8.40;99.90;;;;;;5021984;28;20398;-49
2021/12/15 09:10:51;;;;;;;18.83;6.57;;;8.40;99.90;;;;;;5022383;28;20025;-49
2021/12/15 09:13:16;;;;;;;15.98;6.65;;;8.40;99.90;;;;;;5020489;28;20037;-49
2021/12/15 09:15:42;;;;;;;16.83;6.50;;;8.40;99.90;;;;;;5021623;28;20583;-49
2021/12/15 09:18:10;;;;;;;14.95;6.43;;;8.40;99.90;;;;;;5022233;28;20527;-49
2021/12/15 09:20:38;;;;;;;15.98;6.35;;;8.40;99.90;;;;;;5019281;28;20030;-50
2021/12/15 09:23:08;;;;;;;17.27;6.55;;;8.40;99.90;;;;;;5021302;28;20643;-49
2021/12/15 09:25:34;;;;;;;19.83;7.63;;;8.40;99.90;;;;;;5020784;28;20410;-49
2021/12/15 09:27:59;;;;;;;19.88;7.13;;;8.40;99.90;;;;;;5017200;28;20029;-49
2021/12/15 09:30:27;;;;;;;16.00;6.47;;;8.40;99.90;;;;;;5022211;28;20108;-49
2021/12/15 09:32:53;;;;;;;17.90;6.80;;;8.40;99.90;;;;;;5026087;28;20029;-49
2021/12/15 09:35:20;;;;;;;20.27;6.93;;;8.40;99.90;;;;;;5034432;28;20027;-49
2021/12/15 09:37:47;;;;;;;19.17;6.40;;;8.40;99.90;;;;;;5045781;28;20029;-50
2021/12/15 09:40:15;;;;;;;16.83;6.38;;;8.40;99.90;;;;;;5033567;28;20021;-49
2021/12/15 09:42:41;;;;;;;15.52;6.50;;;8.40;99.90;;;;;;5036370;28;20087;-49
2021/12/15 09:45:30;;;;;;;20.13;7.70;;;8.40;99.90;;;;;;5041061;28;20033;-50
2021/12/15 10:02:05;;;;;;;19.80;7.03;;;8.40;99.90;;;;;;5040643;28;20051;-50
2021/12/15 10:04:55;;;;;;;14.18;6.18;;;8.40;99.90;;;;;;5048412;28;20024;-49
2021/12/15 10:10:41;;;;;;;27.23;7.53;;;8.40;99.90;;;;;;5019464;28;20038;-49
2021/12/15 10:18:35;;;;;;;14.13;5.80;;;8.40;99.90;;;;;;5018802;28;20326;-49
2021/12/15 10:21:03;;;;;;;14.52;6.20;;;8.40;99.90;;;;;;5018271;28;20030;-50
2021/12/15 10:23:36;;;;;;;15.05;5.90;;;8.40;99.90;;;;;;5020326;28;20116;-50
2021/12/15 10:26:05;;;;;;;19.23;6.60;;;8.40;99.90;;;;;;5021300;28;20036;-49
2021/12/15 10:28:32;;;;;;;16.88;6.45;;;8.40;99.90;;;;;;5018650;28;20373;-50
2021/12/15 10:31:03;;;;;;;17.70;6.70;;;8.40;99.90;;;;;;5023004;28;20034;-49
2021/12/15 10:33:37;;;;;;;13.05;6.55;;;8.40;99.90;;;;;;5018790;28;20049;-49
2021/12/15 10:36:12;;;;;;;16.35;5.85;;;8.40;99.90;;;;;;5017251;28;20470;-49
2021/12/15 10:38:53;;;;;;;14.20;5.47;;;8.40;99.90;;;;;;5019659;28;20033;-50
2021/12/15 10:41:23;;;;;;;14.63;5.45;;;8.40;99.90;;;;;;5016816;28;20030;-49
2021/12/15 10:44:13;;;;;;;18.27;6.55;;;8.40;99.90;;;;;;5020749;28;20025;-49
2021/12/15 10:46:38;;;;;;;16.48;5.50;;;8.40;99.90;;;;;;5018954;28;20038;-49
2021/12/15 10:49:16;;;;;;;12.68;5.22;;;8.40;99.90;;;;;;5018029;28;20347;-49
2021/12/15 10:51:56;;;;;;;17.83;5.80;;;8.40;99.90;;;;;;5015436;28;20096;-49
2021/12/15 10:54:25;;;;;;;14.15;5.57;;;8.40;99.90;;;;;;5032918;28;20033;-49
2021/12/15 10:56:59;;;;;;;12.77;6.22;;;8.40;99.90;;;;;;5031661;28;20033;-49
2021/12/15 10:59:28;;;;;;;16.33;6.22;;;8.40;99.90;;;;;;5036029;28;20080;-49
2021/12/15 11:02:00;;;;;;;15.25;5.30;;;8.40;99.90;;;;;;5033199;28;20049;-49
2021/12/15 11:04:26;;;;;;;10.15;5.60;;;8.40;99.90;;;;;;5034260;28;20039;-50
2021/12/15 11:07:06;;;;;;;13.70;5.40;;;8.40;99.90;;;;;;5030412;28;20051;-49
2021/12/15 11:09:36;;;;;;;18.60;5.43;;;8.40;99.90;;;;;;5034732;28;20025;-49
2021/12/15 11:12:10;;;;;;;14.18;6.88;;;8.40;99.90;;;;;;5037459;28;20060;-49
2021/12/15 11:14:39;;;;;;;14.45;5.85;;;8.40;99.90;;;;;;5031556;28;20079;-49
2021/12/15 11:17:12;;;;;;;13.23;6.13;;;8.40;99.90;;;;;;5033205;28;20536;-49
2021/12/15 11:19:46;;;;;;;11.75;6.40;;;8.40;99.90;;;;;;5038825;28;20394;-49
2021/12/15 11:22:37;;;;;;;15.95;5.35;;;8.40;99.90;;;;;;5034365;28;20032;-49
2021/12/15 11:25:05;;;;;;;;;;;8.40;99.90;;;;;;5041077;28;20454;-49
2021/12/15 11:27:30;;;;;;;12.10;5.03;;;8.40;99.90;;;;;;5041542;28;20369;-50
2021/12/15 11:29:56;;;;;;;9.70;4.53;;;8.40;99.90;;;;;;5041030;28;20033;-49
2021/12/15 11:32:43;;;;;;;7.85;4.15;;;8.50;99.90;;;;;;5038100;28;20026;-49
2021/12/15 11:35:20;;;;;;;17.05;5.53;;;8.50;99.90;;;;;;5036369;28;20043;-49
2021/12/15 11:37:51;;;;;;;11.27;4.47;;;8.50;99.90;;;;;;5034243;28;20029;-49
2021/12/15 11:40:30;;;;;;;9.45;4.43;;;8.40;99.90;;;;;;5039105;28;20026;-50
2021/12/15 11:42:56;;;;;;;6.80;3.30;;;8.50;99.90;;;;;;5034672;28;20025;-49
2021/12/15 11:45:22;;;;;;;9.88;3.95;;;8.50;99.90;;;;;;5037254;28;20033;-49
2021/12/15 11:47:48;;;;;;;11.35;4.93;;;8.40;99.90;;;;;;5038031;28;20041;-49
2021/12/15 11:50:18;;;;;;;9.07;4.38;;;8.50;99.90;;;;;;5030587;28;20025;-49
2021/12/15 11:52:47;;;;;;;6.30;3.10;;;8.50;99.90;;;;;;5035668;28;20037;-49
2021/12/15 11:55:29;;;;;;;8.15;3.35;;;8.40;99.90;;;;;;5038063;28;20393;-49
2021/12/15 11:57:57;;;;;;;7.85;3.75;;;8.40;99.90;;;;;;5040140;28;20409;-49
2021/12/15 12:00:26;;;;;;;4.47;3.22;;;8.50;99.90;;;;;;5032890;28;20048;-49
2021/12/15 12:02:57;;;;;;;6.00;2.58;;;8.50;99.90;;;;;;5039059;28;20022;-49
2021/12/15 12:05:25;;;;;;;;;;;8.50;99.90;;;;;;5041519;28;20083;-50
2021/12/15 12:07:55;;;;;;;7.65;3.67;;;8.50;99.90;;;;;;5030342;28;20286;-49
2021/12/15 12:10:29;;;;;;;2.85;2.03;;;8.50;99.90;;;;;;5040313;28;20028;-49
2021/12/15 12:13:07;;;;;;;4.72;2.78;;;8.50;99.90;;;;;;5046860;28;20357;-49
2021/12/15 12:15:37;;;;;;;5.93;3.58;;;8.40;99.90;;;;;;5034102;28;20447;-49
2021/12/15 12:18:08;;;;;;;6.82;3.17;;;8.50;99.90;;;;;;5037764;28;20037;-50
2021/12/15 12:20:40;;;;;;;5.97;2.28;;;8.50;99.90;;;;;;5042178;28;20237;-49
2021/12/15 12:23:14;;;;;;;6.72;1.55;;;8.50;99.90;;;;;;5037714;28;20051;-49
2021/12/15 12:25:46;;;;;;;1.52;1.38;;;8.50;99.90;;;;;;5029792;28;20035;-49
2021/12/15 12:28:16;;;;;;;4.35;1.30;;;8.50;99.90;;;;;;5034379;28;20056;-49
2021/12/15 12:30:50;;;;;;;4.40;2.58;;;8.50;99.90;;;;;;5042012;28;20029;-49
2021/12/15 12:33:18;;;;;;;2.47;1.50;;;8.50;99.90;;;;;;5021891;28;20053;-49
2021/12/15 12:35:48;;;;;;;2.10;1.50;;;8.50;99.90;;;;;;5025862;28;20030;-49
2021/12/15 12:38:24;;;;;;;2.55;1.70;;;8.50;99.90;;;;;;5029383;28;20052;-49
2021/12/15 12:40:51;;;;;;;5.75;2.90;;;8.60;99.90;;;;;;5034490;28;20332;-49
2021/12/15 12:43:29;;;;;;;5.25;2.83;;;8.50;99.90;;;;;;5041197;28;20029;-49
2021/12/15 12:46:32;;;;;;;3.42;2.22;;;8.50;99.90;;;;;;5036906;28;20389;-49
2021/12/15 13:00:21;;;;;;;5.15;2.25;;;8.50;99.90;;;;;;5035498;28;20036;-49
2021/12/15 13:02:50;;;;;;;4.20;2.35;;;8.50;99.90;;;;;;5022647;28;20034;-49
2021/12/15 13:05:43;;;;;;;4.18;2.63;;;8.50;99.90;;;;;;5021898;28;20028;-49
2021/12/15 13:08:36;;;;;;;7.05;2.47;;;8.50;99.90;;;;;;5020343;28;20044;-49
2021/12/15 13:11:33;;;;;;;7.38;3.45;;;8.50;99.90;;;;;;5022696;28;20041;-49
2021/12/15 13:14:02;;;;;;;4.65;2.47;;;8.50;99.90;;;;;;5030365;28;20040;-49
2021/12/15 13:16:30;;;;;;;4.72;2.75;;;8.50;99.90;;;;;;5029881;28;20113;-49
2021/12/15 13:19:04;;;;;;;5.95;3.58;;;8.50;99.90;;;;;;5036147;28;20091;-49
2021/12/15 13:21:46;;;;;;;8.07;3.00;;;8.50;99.90;;;;;;5043376;28;20333;-50
2021/12/15 13:28:43;;;;;;;5.25;2.65;;;8.50;99.90;;;;;;5037185;28;20099;-51
2021/12/15 13:30:42;;;;;;;5.45;2.78;;;8.50;99.90;;;;;;5043828;28;20040;-49
2021/12/15 13:33:29;;;;;;;3.90;2.42;;;8.50;99.90;;;;;;5041308;28;20040;-49
2021/12/15 13:35:57;;;;;;;2.83;1.90;;;8.50;99.90;;;;;;5031119;28;20068;-49
2021/12/15 13:38:56;;;;;;;2.92;2.33;;;8.50;99.90;;;;;;5033610;28;20466;-49
2021/12/15 13:41:39;;;;;;;3.67;2.65;;;8.50;99.90;;;;;;5025802;28;20042;-49
2021/12/15 13:44:27;;;;;;;4.00;2.63;;;8.50;99.90;;;;;;5027483;28;20026;-50
2021/12/15 13:47:00;;;;;;;5.45;2.58;;;8.50;99.90;;;;;;5029781;28;20030;-50
2021/12/15 13:49:31;;;;;;;6.53;3.50;;;8.50;99.90;;;;;;5031645;28;20335;-49
2021/12/15 13:52:05;;;;;;;11.90;4.13;;;8.50;99.90;;;;;;5029585;28;20017;-49
2021/12/15 13:54:33;;;;;;;5.85;3.28;;;8.50;99.90;;;;;;5032590;28;20048;-49
2021/12/15 13:57:14;;;;;;;6.30;3.97;;;8.50;99.90;;;;;;5039377;28;20443;-49
2021/12/15 13:59:58;;;;;;;7.45;4.15;;;8.50;99.90;;;;;;5043128;28;20108;-49
2021/12/15 14:02:28;;;;;;;8.80;4.22;;;8.50;99.90;;;;;;5034400;28;20021;-49
2021/12/15 14:05:17;;;;;;;8.30;4.53;;;8.50;99.90;;;;;;5034665;28;20101;-49
2021/12/15 14:07:49;;;;;;;8.10;4.07;;;8.50;99.90;;;;;;5033592;28;20044;-50
2021/12/15 14:10:18;;;;;;;11.23;4.88;;;8.50;99.90;;;;;;5038363;28;20145;-49
2021/12/15 14:12:49;;;;;;;8.20;3.90;;;8.50;99.90;;;;;;5045140;28;20029;-49
2021/12/15 14:15:40;;;;;;;7.13;3.85;;;8.50;99.90;;;;;;5038894;28;20050;-50
2021/12/15 14:18:12;;;;;;;11.45;5.30;;;8.50;99.90;;;;;;5034395;28;20026;-50
2021/12/15 14:20:52;;;;;;;9.82;4.47;;;8.50;99.90;;;;;;5042045;28;20049;-49
2021/12/15 14:23:23;;;;;;;;;;;8.50;99.90;;;;;;5027106;28;20124;-49
2021/12/15 14:25:48;;;;;;;;;;;8.50;99.90;;;;;;5039242;28;19926;-49